sensor_id;sensor_type;location;lat;lon;timestamp;temperature;humidity
70708;SHT30;58277;47.316;18.908;2023-02-26T00:01:53;5.08;69.69
70708;SHT30;58277;47.316;18.908;2023-02-26T00:04:19;4.99;69.80
70708;SHT30;58277;47.316;18.908;2023-02-26T00:06:42;4.95;69.72
70708;SHT30;58277;47.316;18.908;2023-02-26T00:09:17;4.85;68.98
70708;SHT30;58277;47.316;18.908;2023-02-26T00:11:40;4.81;69.20
70708;SHT30;58277;47.316;18.908;2023-02-26T00:14:03;4.92;68.67
70708;SHT30;58277;47.316;18.908;2023-02-26T00:16:34;4.93;68.47
70708;SHT30;58277;47.316;18.908;2023-02-26T00:19:00;4.92;68.32
70708;SHT30;58277;47.316;18.908;2023-02-26T00:21:24;4.74;68.34
70708;SHT30;58277;47.316;18.908;2023-02-26T00:23:47;4.70;68.72
70708;SHT30;58277;47.316;18.908;2023-02-26T00:26:09;4.68;68.19
70708;SHT30;58277;47.316;18.908;2023-02-26T00:28:32;4.67;68.26
70708;SHT30;58277;47.316;18.908;2023-02-26T00:30:55;4.72;68.00
70708;SHT30;58277;47.316;18.908;2023-02-26T00:33:18;4.70;68.10
70708;SHT30;58277;47.316;18.908;2023-02-26T00:35:41;4.68;67.95
70708;SHT30;58277;47.316;18.908;2023-02-26T00:38:11;4.82;67.37
70708;SHT30;58277;47.316;18.908;2023-02-26T00:40:45;4.82;66.96
70708;SHT30;58277;47.316;18.908;2023-02-26T00:45:37;4.91;67.10
70708;SHT30;58277;47.316;18.908;2023-02-26T00:48:20;4.72;67.08
70708;SHT30;58277;47.316;18.908;2023-02-26T00:50:51;4.79;67.14
70708;SHT30;58277;47.316;18.908;2023-02-26T00:53:25;4.68;67.59
70708;SHT30;58277;47.316;18.908;2023-02-26T00:55:49;4.77;66.86
70708;SHT30;58277;47.316;18.908;2023-02-26T00:58:11;4.67;67.24
70708;SHT30;58277;47.316;18.908;2023-02-26T01:00:34;4.71;66.91
70708;SHT30;58277;47.316;18.908;2023-02-26T01:02:57;4.68;66.62
70708;SHT30;58277;47.316;18.908;2023-02-26T01:05:20;4.67;66.85
70708;SHT30;58277;47.316;18.908;2023-02-26T01:08:14;4.75;66.73
70708;SHT30;58277;47.316;18.908;2023-02-26T01:10:40;4.77;66.83
70708;SHT30;58277;47.316;18.908;2023-02-26T01:13:03;4.75;67.31
70708;SHT30;58277;47.316;18.908;2023-02-26T01:15:26;4.71;66.91
70708;SHT30;58277;47.316;18.908;2023-02-26T01:17:59;4.64;67.51
70708;SHT30;58277;47.316;18.908;2023-02-26T01:20:28;4.67;67.42
70708;SHT30;58277;47.316;18.908;2023-02-26T01:23:13;4.70;67.59
70708;SHT30;58277;47.316;18.908;2023-02-26T01:26:22;4.71;67.15
70708;SHT30;58277;47.316;18.908;2023-02-26T01:28:46;4.70;67.01
70708;SHT30;58277;47.316;18.908;2023-02-26T01:31:17;4.65;66.98
70708;SHT30;58277;47.316;18.908;2023-02-26T01:33:52;4.64;67.20
70708;SHT30;58277;47.316;18.908;2023-02-26T01:36:24;4.64;67.02
70708;SHT30;58277;47.316;18.908;2023-02-26T01:49:24;4.60;66.86
70708;SHT30;58277;47.316;18.908;2023-02-26T01:52:01;4.56;67.19
70708;SHT30;58277;47.316;18.908;2023-02-26T01:54:36;4.65;66.66
70708;SHT30;58277;47.316;18.908;2023-02-26T01:57:03;4.71;66.88
70708;SHT30;58277;47.316;18.908;2023-02-26T01:59:27;4.71;67.28
70708;SHT30;58277;47.316;18.908;2023-02-26T02:01:53;4.72;66.76
70708;SHT30;58277;47.316;18.908;2023-02-26T02:04:17;4.71;66.79
70708;SHT30;58277;47.316;18.908;2023-02-26T02:06:40;4.70;66.83
70708;SHT30;58277;47.316;18.908;2023-02-26T02:09:05;4.67;66.86
70708;SHT30;58277;47.316;18.908;2023-02-26T02:11:30;4.57;66.93
70708;SHT30;58277;47.316;18.908;2023-02-26T02:14:16;4.46;67.61
70708;SHT30;58277;47.316;18.908;2023-02-26T02:22:08;4.51;67.68
70708;SHT30;58277;47.316;18.908;2023-02-26T02:33:12;4.28;68.96
70708;SHT30;58277;47.316;18.908;2023-02-26T02:35:49;4.37;68.39
70708;SHT30;58277;47.316;18.908;2023-02-26T02:38:26;4.30;68.41
70708;SHT30;58277;47.316;18.908;2023-02-26T02:41:14;4.33;68.67
70708;SHT30;58277;47.316;18.908;2023-02-26T02:44:02;4.34;68.57
70708;SHT30;58277;47.316;18.908;2023-02-26T02:46:29;4.39;68.66
70708;SHT30;58277;47.316;18.908;2023-02-26T02:49:06;4.26;69.11
70708;SHT30;58277;47.316;18.908;2023-02-26T02:51:33;4.24;69.59
70708;SHT30;58277;47.316;18.908;2023-02-26T02:54:16;4.20;69.02
70708;SHT30;58277;47.316;18.908;2023-02-26T02:56:48;4.23;69.19
70708;SHT30;58277;47.316;18.908;2023-02-26T03:01:36;4.14;69.46
70708;SHT30;58277;47.316;18.908;2023-02-26T03:04:09;4.19;69.50
70708;SHT30;58277;47.316;18.908;2023-02-26T03:06:33;4.23;69.08
70708;SHT30;58277;47.316;18.908;2023-02-26T03:08:57;4.22;69.47
70708;SHT30;58277;47.316;18.908;2023-02-26T03:11:21;4.17;69.46
70708;SHT30;58277;47.316;18.908;2023-02-26T03:13:44;4.12;69.69
70708;SHT30;58277;47.316;18.908;2023-02-26T03:21:30;4.16;69.71
70708;SHT30;58277;47.316;18.908;2023-02-26T03:24:11;4.22;69.85
70708;SHT30;58277;47.316;18.908;2023-02-26T03:29:15;4.16;69.50
70708;SHT30;58277;47.316;18.908;2023-02-26T03:31:51;4.19;69.43
70708;SHT30;58277;47.316;18.908;2023-02-26T03:34:35;4.19;69.43
70708;SHT30;58277;47.316;18.908;2023-02-26T03:37:17;4.23;70.17
70708;SHT30;58277;47.316;18.908;2023-02-26T03:39:45;4.32;69.16
70708;SHT30;58277;47.316;18.908;2023-02-26T03:45:01;4.20;69.83
70708;SHT30;58277;47.316;18.908;2023-02-26T03:47:28;4.22;70.11
70708;SHT30;58277;47.316;18.908;2023-02-26T03:50:05;4.22;69.95
70708;SHT30;58277;47.316;18.908;2023-02-26T03:52:39;4.13;70.49
70708;SHT30;58277;47.316;18.908;2023-02-26T03:55:44;4.23;70.46
70708;SHT30;58277;47.316;18.908;2023-02-26T03:58:23;4.19;70.41
70708;SHT30;58277;47.316;18.908;2023-02-26T04:01:07;4.14;71.18
70708;SHT30;58277;47.316;18.908;2023-02-26T04:03:43;4.23;71.04
70708;SHT30;58277;47.316;18.908;2023-02-26T04:06:07;4.09;71.44
70708;SHT30;58277;47.316;18.908;2023-02-26T04:08:30;4.07;71.87
70708;SHT30;58277;47.316;18.908;2023-02-26T04:10:57;3.99;71.29
70708;SHT30;58277;47.316;18.908;2023-02-26T04:13:21;3.95;71.97
70708;SHT30;58277;47.316;18.908;2023-02-26T04:15:46;3.92;71.72
70708;SHT30;58277;47.316;18.908;2023-02-26T04:18:08;3.93;71.84
70708;SHT30;58277;47.316;18.908;2023-02-26T04:20:31;3.95;71.65
70708;SHT30;58277;47.316;18.908;2023-02-26T04:22:54;4.05;71.22
70708;SHT30;58277;47.316;18.908;2023-02-26T04:25:20;3.99;70.85
70708;SHT30;58277;47.316;18.908;2023-02-26T04:27:43;3.92;71.10
70708;SHT30;58277;47.316;18.908;2023-02-26T04:30:06;3.84;71.31
70708;SHT30;58277;47.316;18.908;2023-02-26T04:32:30;3.82;71.06
70708;SHT30;58277;47.316;18.908;2023-02-26T04:34:52;3.65;71.43
70708;SHT30;58277;47.316;18.908;2023-02-26T04:37:15;3.60;71.57
70708;SHT30;58277;47.316;18.908;2023-02-26T04:39:38;3.65;71.64
70708;SHT30;58277;47.316;18.908;2023-02-26T04:42:02;3.60;71.72
70708;SHT30;58277;47.316;18.908;2023-02-26T04:44:27;3.61;72.07
70708;SHT30;58277;47.316;18.908;2023-02-26T04:46:50;3.64;71.71
70708;SHT30;58277;47.316;18.908;2023-02-26T04:49:12;3.61;71.86
70708;SHT30;58277;47.316;18.908;2023-02-26T04:51:38;3.60;71.88
70708;SHT30;58277;47.316;18.908;2023-02-26T04:54:02;3.55;72.03
70708;SHT30;58277;47.316;18.908;2023-02-26T04:56:26;3.48;72.21
70708;SHT30;58277;47.316;18.908;2023-02-26T04:58:50;3.51;72.12
70708;SHT30;58277;47.316;18.908;2023-02-26T05:01:18;3.46;72.45
70708;SHT30;58277;47.316;18.908;2023-02-26T05:03:42;3.46;72.82
70708;SHT30;58277;47.316;18.908;2023-02-26T05:06:05;3.48;72.82
70708;SHT30;58277;47.316;18.908;2023-02-26T05:08:28;3.40;72.73
70708;SHT30;58277;47.316;18.908;2023-02-26T05:10:51;3.47;72.68
70708;SHT30;58277;47.316;18.908;2023-02-26T05:13:14;3.53;72.45
70708;SHT30;58277;47.316;18.908;2023-02-26T05:15:36;3.47;72.31
70708;SHT30;58277;47.316;18.908;2023-02-26T05:17:59;3.40;72.60
70708;SHT30;58277;47.316;18.908;2023-02-26T05:20:22;3.48;72.77
70708;SHT30;58277;47.316;18.908;2023-02-26T05:22:45;3.58;72.83
70708;SHT30;58277;47.316;18.908;2023-02-26T05:25:09;3.58;72.02
70708;SHT30;58277;47.316;18.908;2023-02-26T05:27:33;3.58;72.06
70708;SHT30;58277;47.316;18.908;2023-02-26T05:29:56;3.55;72.01
70708;SHT30;58277;47.316;18.908;2023-02-26T05:32:19;3.61;71.76
70708;SHT30;58277;47.316;18.908;2023-02-26T05:34:42;3.60;72.05
70708;SHT30;58277;47.316;18.908;2023-02-26T05:37:04;3.61;72.06
70708;SHT30;58277;47.316;18.908;2023-02-26T05:39:27;3.55;72.57
70708;SHT30;58277;47.316;18.908;2023-02-26T05:41:50;3.50;72.79
70708;SHT30;58277;47.316;18.908;2023-02-26T05:44:14;3.73;72.22
70708;SHT30;58277;47.316;18.908;2023-02-26T05:46:37;3.65;72.45
70708;SHT30;58277;47.316;18.908;2023-02-26T05:49:00;3.58;72.51
70708;SHT30;58277;47.316;18.908;2023-02-26T05:51:23;3.61;72.39
70708;SHT30;58277;47.316;18.908;2023-02-26T05:53:45;3.67;72.34
70708;SHT30;58277;47.316;18.908;2023-02-26T05:56:08;3.82;71.89
70708;SHT30;58277;47.316;18.908;2023-02-26T05:58:31;3.71;71.90
70708;SHT30;58277;47.316;18.908;2023-02-26T06:00:57;3.57;72.11
70708;SHT30;58277;47.316;18.908;2023-02-26T06:03:20;3.50;72.74
70708;SHT30;58277;47.316;18.908;2023-02-26T06:05:42;3.53;72.13
70708;SHT30;58277;47.316;18.908;2023-02-26T06:08:05;3.58;72.05
70708;SHT30;58277;47.316;18.908;2023-02-26T06:10:28;3.64;72.15
70708;SHT30;58277;47.316;18.908;2023-02-26T06:12:51;3.61;72.29
70708;SHT30;58277;47.316;18.908;2023-02-26T06:15:13;3.60;72.38
70708;SHT30;58277;47.316;18.908;2023-02-26T06:17:37;3.57;72.63
70708;SHT30;58277;47.316;18.908;2023-02-26T06:20:03;3.64;72.22
70708;SHT30;58277;47.316;18.908;2023-02-26T06:22:26;3.63;71.48
70708;SHT30;58277;47.316;18.908;2023-02-26T06:24:49;3.57;71.97
70708;SHT30;58277;47.316;18.908;2023-02-26T06:27:11;3.65;71.87
70708;SHT30;58277;47.316;18.908;2023-02-26T06:29:35;3.55;72.17
70708;SHT30;58277;47.316;18.908;2023-02-26T06:31:59;3.75;71.84
70708;SHT30;58277;47.316;18.908;2023-02-26T06:34:21;3.77;71.18
70708;SHT30;58277;47.316;18.908;2023-02-26T06:36:45;3.71;71.49
70708;SHT30;58277;47.316;18.908;2023-02-26T06:39:07;3.81;71.16
70708;SHT30;58277;47.316;18.908;2023-02-26T06:41:30;3.82;71.21
70708;SHT30;58277;47.316;18.908;2023-02-26T06:43:53;3.89;71.24
70708;SHT30;58277;47.316;18.908;2023-02-26T06:46:15;3.91;71.44
70708;SHT30;58277;47.316;18.908;2023-02-26T06:48:38;4.05;70.41
70708;SHT30;58277;47.316;18.908;2023-02-26T06:51:01;3.99;70.62
70708;SHT30;58277;47.316;18.908;2023-02-26T06:53:23;3.93;71.20
70708;SHT30;58277;47.316;18.908;2023-02-26T06:55:49;4.01;70.63
70708;SHT30;58277;47.316;18.908;2023-02-26T06:58:12;4.01;70.76
70708;SHT30;58277;47.316;18.908;2023-02-26T07:00:35;3.88;70.66
70708;SHT30;58277;47.316;18.908;2023-02-26T07:02:59;4.06;70.73
70708;SHT30;58277;47.316;18.908;2023-02-26T07:05:22;4.03;70.63
70708;SHT30;58277;47.316;18.908;2023-02-26T07:07:45;4.14;70.34
70708;SHT30;58277;47.316;18.908;2023-02-26T07:10:10;4.28;69.87
70708;SHT30;58277;47.316;18.908;2023-02-26T07:12:33;4.29;69.93
70708;SHT30;58277;47.316;18.908;2023-02-26T07:14:56;4.30;70.11
70708;SHT30;58277;47.316;18.908;2023-02-26T07:17:18;4.47;69.89
70708;SHT30;58277;47.316;18.908;2023-02-26T07:19:49;4.51;69.76
70708;SHT30;58277;47.316;18.908;2023-02-26T07:22:12;4.57;69.80
70708;SHT30;58277;47.316;18.908;2023-02-26T07:24:35;4.61;68.90
70708;SHT30;58277;47.316;18.908;2023-02-26T07:26:57;4.65;68.84
70708;SHT30;58277;47.316;18.908;2023-02-26T07:29:20;4.85;68.64
70708;SHT30;58277;47.316;18.908;2023-02-26T07:31:43;4.79;68.25
70708;SHT30;58277;47.316;18.908;2023-02-26T07:34:06;4.92;68.18
70708;SHT30;58277;47.316;18.908;2023-02-26T07:36:28;4.95;67.97
70708;SHT30;58277;47.316;18.908;2023-02-26T07:38:51;4.85;68.09
70708;SHT30;58277;47.316;18.908;2023-02-26T07:41:14;4.99;68.36
70708;SHT30;58277;47.316;18.908;2023-02-26T07:43:37;5.05;67.88
70708;SHT30;58277;47.316;18.908;2023-02-26T07:46:20;5.04;67.74
70708;SHT30;58277;47.316;18.908;2023-02-26T07:48:43;4.99;67.67
70708;SHT30;58277;47.316;18.908;2023-02-26T07:51:06;4.96;68.28
70708;SHT30;58277;47.316;18.908;2023-02-26T07:53:29;4.93;68.40
70708;SHT30;58277;47.316;18.908;2023-02-26T07:55:52;4.88;68.64
70708;SHT30;58277;47.316;18.908;2023-02-26T07:58:15;4.88;68.59
70708;SHT30;58277;47.316;18.908;2023-02-26T08:00:38;4.92;68.48
70708;SHT30;58277;47.316;18.908;2023-02-26T08:03:01;5.06;67.72
70708;SHT30;58277;47.316;18.908;2023-02-26T08:05:23;5.16;67.97
70708;SHT30;58277;47.316;18.908;2023-02-26T08:07:46;5.08;68.10
70708;SHT30;58277;47.316;18.908;2023-02-26T08:10:09;4.99;68.51
70708;SHT30;58277;47.316;18.908;2023-02-26T08:12:32;5.06;67.69
70708;SHT30;58277;47.316;18.908;2023-02-26T08:14:55;5.11;67.92
70708;SHT30;58277;47.316;18.908;2023-02-26T08:17:18;5.04;68.14
70708;SHT30;58277;47.316;18.908;2023-02-26T08:19:40;5.09;67.46
70708;SHT30;58277;47.316;18.908;2023-02-26T08:22:03;5.02;67.97
70708;SHT30;58277;47.316;18.908;2023-02-26T08:24:26;4.96;67.89
70708;SHT30;58277;47.316;18.908;2023-02-26T08:26:48;5.04;68.05
70708;SHT30;58277;47.316;18.908;2023-02-26T08:29:11;5.04;68.12
70708;SHT30;58277;47.316;18.908;2023-02-26T08:31:34;4.99;67.93
70708;SHT30;58277;47.316;18.908;2023-02-26T08:33:57;5.02;68.35
70708;SHT30;58277;47.316;18.908;2023-02-26T08:36:20;5.06;68.26
70708;SHT30;58277;47.316;18.908;2023-02-26T08:38:43;5.04;67.90
70708;SHT30;58277;47.316;18.908;2023-02-26T08:41:06;5.16;67.40
70708;SHT30;58277;47.316;18.908;2023-02-26T08:43:29;5.25;67.60
70708;SHT30;58277;47.316;18.908;2023-02-26T08:45:53;5.29;67.55
70708;SHT30;58277;47.316;18.908;2023-02-26T08:48:16;5.48;66.60
70708;SHT30;58277;47.316;18.908;2023-02-26T08:50:39;5.60;65.94
70708;SHT30;58277;47.316;18.908;2023-02-26T08:53:02;5.68;65.77
70708;SHT30;58277;47.316;18.908;2023-02-26T08:55:24;5.78;65.35
70708;SHT30;58277;47.316;18.908;2023-02-26T08:57:47;5.94;65.18
70708;SHT30;58277;47.316;18.908;2023-02-26T09:00:10;6.02;64.57
70708;SHT30;58277;47.316;18.908;2023-02-26T09:02:33;6.22;64.79
70708;SHT30;58277;47.316;18.908;2023-02-26T09:04:56;5.87;64.72
70708;SHT30;58277;47.316;18.908;2023-02-26T09:07:18;5.94;64.11
70708;SHT30;58277;47.316;18.908;2023-02-26T09:09:41;5.90;64.65
70708;SHT30;58277;47.316;18.908;2023-02-26T09:12:04;5.98;64.10
70708;SHT30;58277;47.316;18.908;2023-02-26T09:14:27;6.19;63.46
70708;SHT30;58277;47.316;18.908;2023-02-26T09:16:50;6.25;62.53
70708;SHT30;58277;47.316;18.908;2023-02-26T09:19:13;6.37;62.75
70708;SHT30;58277;47.316;18.908;2023-02-26T09:21:35;6.39;61.89
70708;SHT30;58277;47.316;18.908;2023-02-26T09:23:58;6.34;62.28
70708;SHT30;58277;47.316;18.908;2023-02-26T09:26:21;6.37;62.44
70708;SHT30;58277;47.316;18.908;2023-02-26T09:28:44;6.42;62.29
70708;SHT30;58277;47.316;18.908;2023-02-26T09:31:08;6.43;62.01
70708;SHT30;58277;47.316;18.908;2023-02-26T09:33:32;6.53;61.82
70708;SHT30;58277;47.316;18.908;2023-02-26T09:35:55;6.56;61.98
70708;SHT30;58277;47.316;18.908;2023-02-26T09:38:18;6.54;62.01
70708;SHT30;58277;47.316;18.908;2023-02-26T09:46:55;6.56;60.99
70708;SHT30;58277;47.316;18.908;2023-02-26T09:49:31;6.54;61.71
70708;SHT30;58277;47.316;18.908;2023-02-26T09:52:10;6.70;61.26
70708;SHT30;58277;47.316;18.908;2023-02-26T09:54:49;6.73;60.27
70708;SHT30;58277;47.316;18.908;2023-02-26T09:57:21;6.98;60.63
70708;SHT30;58277;47.316;18.908;2023-02-26T09:59:47;7.11;60.21
70708;SHT30;58277;47.316;18.908;2023-02-26T10:05:18;7.49;58.40
70708;SHT30;58277;47.316;18.908;2023-02-26T10:08:04;7.70;58.35
70708;SHT30;58277;47.316;18.908;2023-02-26T10:10:57;8.08;57.09
70708;SHT30;58277;47.316;18.908;2023-02-26T10:16:31;8.50;55.37
70708;SHT30;58277;47.316;18.908;2023-02-26T10:19:00;8.73;54.90
70708;SHT30;58277;47.316;18.908;2023-02-26T10:24:47;8.66;54.08
70708;SHT30;58277;47.316;18.908;2023-02-26T10:27:15;8.45;53.46
70708;SHT30;58277;47.316;18.908;2023-02-26T10:29:45;8.49;54.72
70708;SHT30;58277;47.316;18.908;2023-02-26T10:32:25;8.66;53.57
70708;SHT30;58277;47.316;18.908;2023-02-26T10:34:54;8.83;53.21
70708;SHT30;58277;47.316;18.908;2023-02-26T10:42:48;9.03;52.25
70708;SHT30;58277;47.316;18.908;2023-02-26T10:48:12;8.80;51.98
70708;SHT30;58277;47.316;18.908;2023-02-26T10:50:47;9.12;51.56
70708;SHT30;58277;47.316;18.908;2023-02-26T10:53:11;9.27;51.69
70708;SHT30;58277;47.316;18.908;2023-02-26T11:00:33;8.85;50.09
70708;SHT30;58277;47.316;18.908;2023-02-26T11:02:59;8.66;51.21
70708;SHT30;58277;47.316;18.908;2023-02-26T11:05:25;8.48;51.97
70708;SHT30;58277;47.316;18.908;2023-02-26T11:08:04;8.39;51.74
70708;SHT30;58277;47.316;18.908;2023-02-26T11:10:46;8.28;51.54
70708;SHT30;58277;47.316;18.908;2023-02-26T11:13:10;8.38;52.06
70708;SHT30;58277;47.316;18.908;2023-02-26T11:15:32;8.56;51.71
70708;SHT30;58277;47.316;18.908;2023-02-26T11:17:56;8.69;50.62
70708;SHT30;58277;47.316;18.908;2023-02-26T11:20:38;8.49;50.51
70708;SHT30;58277;47.316;18.908;2023-02-26T11:23:05;8.46;51.66
70708;SHT30;58277;47.316;18.908;2023-02-26T11:25:30;8.31;51.99
70708;SHT30;58277;47.316;18.908;2023-02-26T11:28:07;7.84;52.87
70708;SHT30;58277;47.316;18.908;2023-02-26T11:30:43;8.02;52.99
70708;SHT30;58277;47.316;18.908;2023-02-26T11:33:16;8.14;53.14
70708;SHT30;58277;47.316;18.908;2023-02-26T11:35:39;8.11;52.36
70708;SHT30;58277;47.316;18.908;2023-02-26T11:38:02;8.06;52.26
70708;SHT30;58277;47.316;18.908;2023-02-26T11:40:37;7.74;53.35
70708;SHT30;58277;47.316;18.908;2023-02-26T11:43:04;7.88;53.12
70708;SHT30;58277;47.316;18.908;2023-02-26T11:45:28;8.05;52.51
70708;SHT30;58277;47.316;18.908;2023-02-26T11:47:59;8.25;51.99
70708;SHT30;58277;47.316;18.908;2023-02-26T11:50:24;7.85;52.46
70708;SHT30;58277;47.316;18.908;2023-02-26T11:52:55;8.06;52.34
70708;SHT30;58277;47.316;18.908;2023-02-26T11:55:27;7.81;52.23
70708;SHT30;58277;47.316;18.908;2023-02-26T11:57:52;7.95;52.40
70708;SHT30;58277;47.316;18.908;2023-02-26T12:02:43;8.15;52.29
70708;SHT30;58277;47.316;18.908;2023-02-26T12:05:06;8.31;51.61
70708;SHT30;58277;47.316;18.908;2023-02-26T12:07:30;8.18;52.27
70708;SHT30;58277;47.316;18.908;2023-02-26T12:09:53;7.93;53.18
70708;SHT30;58277;47.316;18.908;2023-02-26T12:12:39;7.84;53.80
70708;SHT30;58277;47.316;18.908;2023-02-26T12:23:25;7.83;54.15
70708;SHT30;58277;47.316;18.908;2023-02-26T12:28:47;7.85;54.26
70708;SHT30;58277;47.316;18.908;2023-02-26T12:34:38;7.87;54.44
70708;SHT30;58277;47.316;18.908;2023-02-26T12:42:40;8.18;55.62
70708;SHT30;58277;47.316;18.908;2023-02-26T12:47:48;8.08;55.62
70708;SHT30;58277;47.316;18.908;2023-02-26T12:53:10;7.83;55.78
70708;SHT30;58277;47.316;18.908;2023-02-26T13:04:14;7.20;57.06
70708;SHT30;58277;47.316;18.908;2023-02-26T13:12:29;7.39;56.18
70708;SHT30;58277;47.316;18.908;2023-02-26T13:17:56;7.25;56.33
70708;SHT30;58277;47.316;18.908;2023-02-26T13:20:26;7.22;56.09
70708;SHT30;58277;47.316;18.908;2023-02-26T13:23:14;7.07;56.78
70708;SHT30;58277;47.316;18.908;2023-02-26T13:26:03;7.20;56.83
70708;SHT30;58277;47.316;18.908;2023-02-26T13:28:51;7.28;56.78
70708;SHT30;58277;47.316;18.908;2023-02-26T13:31:24;7.26;56.62
70708;SHT30;58277;47.316;18.908;2023-02-26T13:33:50;6.99;56.60
70708;SHT30;58277;47.316;18.908;2023-02-26T13:36:15;7.12;57.42
70708;SHT30;58277;47.316;18.908;2023-02-26T13:38:45;7.14;56.45
70708;SHT30;58277;47.316;18.908;2023-02-26T13:46:27;7.11;57.22
70708;SHT30;58277;47.316;18.908;2023-02-26T13:49:28;7.16;56.52
70708;SHT30;58277;47.316;18.908;2023-02-26T13:51:54;7.22;56.10
70708;SHT30;58277;47.316;18.908;2023-02-26T14:01:59;6.81;60.62
70708;SHT30;58277;47.316;18.908;2023-02-26T14:04:25;6.66;62.09
70708;SHT30;58277;47.316;18.908;2023-02-26T14:07:09;6.49;63.18
70708;SHT30;58277;47.316;18.908;2023-02-26T14:09:45;6.44;63.33
70708;SHT30;58277;47.316;18.908;2023-02-26T14:22:33;6.30;65.88
70708;SHT30;58277;47.316;18.908;2023-02-26T14:27:48;6.19;66.12
70708;SHT30;58277;47.316;18.908;2023-02-26T14:30:38;6.13;66.27
70708;SHT30;58277;47.316;18.908;2023-02-26T14:33:12;6.13;66.47
70708;SHT30;58277;47.316;18.908;2023-02-26T14:35:42;6.02;66.61
70708;SHT30;58277;47.316;18.908;2023-02-26T14:38:12;6.02;66.97
70708;SHT30;58277;47.316;18.908;2023-02-26T14:40:41;5.99;67.08
70708;SHT30;58277;47.316;18.908;2023-02-26T14:43:06;6.02;66.88
70708;SHT30;58277;47.316;18.908;2023-02-26T14:45:40;6.05;67.21
70708;SHT30;58277;47.316;18.908;2023-02-26T14:48:06;6.01;67.10
70708;SHT30;58277;47.316;18.908;2023-02-26T14:56:19;5.87;67.86
70708;SHT30;58277;47.316;18.908;2023-02-26T15:15:05;5.95;69.83
70708;SHT30;58277;47.316;18.908;2023-02-26T15:18:08;5.90;70.04
70708;SHT30;58277;47.316;18.908;2023-02-26T15:20:52;5.79;69.89
70708;SHT30;58277;47.316;18.908;2023-02-26T15:25:43;5.81;70.03
70708;SHT30;58277;47.316;18.908;2023-02-26T15:30:47;5.95;70.77
70708;SHT30;58277;47.316;18.908;2023-02-26T15:33:13;6.04;70.35
70708;SHT30;58277;47.316;18.908;2023-02-26T15:35:37;5.92;68.62
70708;SHT30;58277;47.316;18.908;2023-02-26T15:38:02;5.91;67.73
70708;SHT30;58277;47.316;18.908;2023-02-26T15:40:29;5.97;68.19
70708;SHT30;58277;47.316;18.908;2023-02-26T15:42:54;5.85;67.44
70708;SHT30;58277;47.316;18.908;2023-02-26T15:47:46;5.88;66.31
70708;SHT30;58277;47.316;18.908;2023-02-26T15:50:15;5.97;67.12
70708;SHT30;58277;47.316;18.908;2023-02-26T15:52:39;5.94;67.17
70708;SHT30;58277;47.316;18.908;2023-02-26T15:55:03;6.01;67.00
70708;SHT30;58277;47.316;18.908;2023-02-26T15:57:28;6.05;67.04
70708;SHT30;58277;47.316;18.908;2023-02-26T15:59:59;6.18;66.30
70708;SHT30;58277;47.316;18.908;2023-02-26T16:02:27;6.13;65.81
70708;SHT30;58277;47.316;18.908;2023-02-26T16:04:51;5.99;66.00
70708;SHT30;58277;47.316;18.908;2023-02-26T16:07:18;6.08;65.77
70708;SHT30;58277;47.316;18.908;2023-02-26T16:09:45;6.21;66.34
70708;SHT30;58277;47.316;18.908;2023-02-26T16:12:13;6.34;65.82
70708;SHT30;58277;47.316;18.908;2023-02-26T16:14:40;6.49;65.40
70708;SHT30;58277;47.316;18.908;2023-02-26T16:17:07;6.60;65.86
70708;SHT30;58277;47.316;18.908;2023-02-26T16:22:14;6.69;65.64
70708;SHT30;58277;47.316;18.908;2023-02-26T16:24:39;6.78;65.49
70708;SHT30;58277;47.316;18.908;2023-02-26T16:27:04;6.34;65.93
70708;SHT30;58277;47.316;18.908;2023-02-26T16:29:32;6.12;65.95
70708;SHT30;58277;47.316;18.908;2023-02-26T16:31:58;6.09;66.58
70708;SHT30;58277;47.316;18.908;2023-02-26T16:39:45;5.47;63.62
70708;SHT30;58277;47.316;18.908;2023-02-26T16:42:20;5.44;64.23
70708;SHT30;58277;47.316;18.908;2023-02-26T16:44:56;5.37;64.55
70708;SHT30;58277;47.316;18.908;2023-02-26T16:47:25;5.36;63.97
70708;SHT30;58277;47.316;18.908;2023-02-26T16:49:51;5.42;63.42
70708;SHT30;58277;47.316;18.908;2023-02-26T16:52:18;5.39;63.38
70708;SHT30;58277;47.316;18.908;2023-02-26T16:54:44;5.42;62.32
70708;SHT30;58277;47.316;18.908;2023-02-26T16:57:18;5.42;62.10
70708;SHT30;58277;47.316;18.908;2023-02-26T16:59:51;5.50;62.40
70708;SHT30;58277;47.316;18.908;2023-02-26T17:02:19;5.53;62.41
70708;SHT30;58277;47.316;18.908;2023-02-26T17:04:46;5.58;63.06
70708;SHT30;58277;47.316;18.908;2023-02-26T17:07:35;5.68;61.56
70708;SHT30;58277;47.316;18.908;2023-02-26T17:10:20;5.68;61.19
70708;SHT30;58277;47.316;18.908;2023-02-26T17:12:47;5.60;61.90
70708;SHT30;58277;47.316;18.908;2023-02-26T17:15:31;5.63;61.75
70708;SHT30;58277;47.316;18.908;2023-02-26T17:17:56;5.60;60.20
70708;SHT30;58277;47.316;18.908;2023-02-26T17:20:19;5.63;60.49
70708;SHT30;58277;47.316;18.908;2023-02-26T17:22:42;5.63;60.50
70708;SHT30;58277;47.316;18.908;2023-02-26T17:25:17;5.54;60.23
70708;SHT30;58277;47.316;18.908;2023-02-26T17:27:42;5.47;61.14
70708;SHT30;58277;47.316;18.908;2023-02-26T17:30:06;5.54;61.37
70708;SHT30;58277;47.316;18.908;2023-02-26T17:32:31;5.54;61.16
70708;SHT30;58277;47.316;18.908;2023-02-26T17:34:56;5.56;61.06
70708;SHT30;58277;47.316;18.908;2023-02-26T17:37:20;5.57;61.10
70708;SHT30;58277;47.316;18.908;2023-02-26T17:39:44;5.58;61.00
70708;SHT30;58277;47.316;18.908;2023-02-26T17:42:11;5.57;61.19
70708;SHT30;58277;47.316;18.908;2023-02-26T17:44:37;5.53;61.43
70708;SHT30;58277;47.316;18.908;2023-02-26T17:47:00;5.54;62.11
70708;SHT30;58277;47.316;18.908;2023-02-26T17:49:23;5.50;62.08
70708;SHT30;58277;47.316;18.908;2023-02-26T17:51:46;5.57;62.45
70708;SHT30;58277;47.316;18.908;2023-02-26T17:54:09;5.53;63.25
70708;SHT30;58277;47.316;18.908;2023-02-26T17:56:33;5.51;63.11
70708;SHT30;58277;47.316;18.908;2023-02-26T17:58:58;5.48;63.60
70708;SHT30;58277;47.316;18.908;2023-02-26T18:01:21;5.51;63.43
70708;SHT30;58277;47.316;18.908;2023-02-26T18:03:44;5.43;63.26
70708;SHT30;58277;47.316;18.908;2023-02-26T18:06:08;5.50;63.70
70708;SHT30;58277;47.316;18.908;2023-02-26T18:08:33;5.63;63.24
70708;SHT30;58277;47.316;18.908;2023-02-26T18:10:58;5.65;63.71
70708;SHT30;58277;47.316;18.908;2023-02-26T18:13:21;5.60;63.84
70708;SHT30;58277;47.316;18.908;2023-02-26T18:15:45;5.57;63.96
70708;SHT30;58277;47.316;18.908;2023-02-26T18:18:12;5.64;63.97
70708;SHT30;58277;47.316;18.908;2023-02-26T18:20:35;5.71;64.40
70708;SHT30;58277;47.316;18.908;2023-02-26T18:22:59;5.73;64.29
70708;SHT30;58277;47.316;18.908;2023-02-26T18:25:23;5.85;64.19
70708;SHT30;58277;47.316;18.908;2023-02-26T18:27:49;5.90;63.64
70708;SHT30;58277;47.316;18.908;2023-02-26T18:30:22;5.90;63.92